sensor_id;sensor_type;location;lat;lon;timestamp;P1;durP1;ratioP1;P2;durP2;ratioP2
12840;SDS011;6487;48.626;12.486;2024-01-25T00:01:54;14.33;;;3.00;;
12840;SDS011;6487;48.626;12.486;2024-01-25T00:04:24;13.77;;;2.97;;
12840;SDS011;6487;48.626;12.486;2024-01-25T00:06:53;10.93;;;2.80;;
12840;SDS011;6487;48.626;12.486;2024-01-25T00:09:21;12.83;;;3.60;;
12840;SDS011;6487;48.626;12.486;2024-01-25T00:11:49;12.40;;;2.67;;
12840;SDS011;6487;48.626;12.486;2024-01-25T00:14:17;10.10;;;2.97;;
12840;SDS011;6487;48.626;12.486;2024-01-25T00:16:45;12.10;;;3.50;;
12840;SDS011;6487;48.626;12.486;2024-01-25T00:19:14;8.87;;;2.83;;
12840;SDS011;6487;48.626;12.486;2024-01-25T00:21:44;13.40;;;3.13;;
12840;SDS011;6487;48.626;12.486;2024-01-25T00:24:12;14.83;;;3.10;;
12840;SDS011;6487;48.626;12.486;2024-01-25T00:26:41;10.00;;;2.80;;
12840;SDS011;6487;48.626;12.486;2024-01-25T00:29:10;10.63;;;2.73;;
12840;SDS011;6487;48.626;12.486;2024-01-25T00:31:38;9.37;;;3.67;;
12840;SDS011;6487;48.626;12.486;2024-01-25T00:34:07;9.63;;;2.90;;
12840;SDS011;6487;48.626;12.486;2024-01-25T00:36:36;14.07;;;4.00;;
12840;SDS011;6487;48.626;12.486;2024-01-25T00:39:07;10.87;;;3.03;;
12840;SDS011;6487;48.626;12.486;2024-01-25T00:41:36;14.47;;;3.00;;
12840;SDS011;6487;48.626;12.486;2024-01-25T00:44:05;18.63;;;3.80;;
12840;SDS011;6487;48.626;12.486;2024-01-25T00:46:35;11.60;;;2.83;;
12840;SDS011;6487;48.626;12.486;2024-01-25T00:49:04;10.93;;;2.63;;
12840;SDS011;6487;48.626;12.486;2024-01-25T00:51:34;10.03;;;2.87;;
12840;SDS011;6487;48.626;12.486;2024-01-25T00:54:04;13.10;;;3.47;;
12840;SDS011;6487;48.626;12.486;2024-01-25T00:56:36;12.37;;;3.20;;
12840;SDS011;6487;48.626;12.486;2024-01-25T00:59:05;8.97;;;2.97;;
12840;SDS011;6487;48.626;12.486;2024-01-25T01:01:34;11.33;;;3.37;;
12840;SDS011;6487;48.626;12.486;2024-01-25T01:04:04;14.30;;;3.20;;
12840;SDS011;6487;48.626;12.486;2024-01-25T01:06:33;12.57;;;3.30;;
12840;SDS011;6487;48.626;12.486;2024-01-25T01:09:02;12.70;;;2.90;;
12840;SDS011;6487;48.626;12.486;2024-01-25T01:11:32;12.43;;;2.43;;
12840;SDS011;6487;48.626;12.486;2024-01-25T01:14:01;12.67;;;3.00;;
12840;SDS011;6487;48.626;12.486;2024-01-25T01:16:29;10.50;;;2.77;;
12840;SDS011;6487;48.626;12.486;2024-01-25T01:18:59;14.40;;;2.80;;
12840;SDS011;6487;48.626;12.486;2024-01-25T01:21:32;10.07;;;2.50;;
12840;SDS011;6487;48.626;12.486;2024-01-25T01:24:02;13.17;;;3.00;;
12840;SDS011;6487;48.626;12.486;2024-01-25T01:26:30;13.80;;;3.13;;
12840;SDS011;6487;48.626;12.486;2024-01-25T01:29:01;14.77;;;3.53;;
12840;SDS011;6487;48.626;12.486;2024-01-25T01:31:30;15.97;;;3.90;;
12840;SDS011;6487;48.626;12.486;2024-01-25T01:33:58;11.70;;;3.23;;
12840;SDS011;6487;48.626;12.486;2024-01-25T01:36:27;16.23;;;2.80;;
12840;SDS011;6487;48.626;12.486;2024-01-25T01:38:56;12.73;;;3.10;;
12840;SDS011;6487;48.626;12.486;2024-01-25T01:41:24;9.30;;;2.57;;
12840;SDS011;6487;48.626;12.486;2024-01-25T01:43:54;8.67;;;2.63;;
12840;SDS011;6487;48.626;12.486;2024-01-25T01:46:26;17.43;;;3.20;;
12840;SDS011;6487;48.626;12.486;2024-01-25T01:49:01;9.70;;;2.63;;
12840;SDS011;6487;48.626;12.486;2024-01-25T01:51:30;14.73;;;3.33;;
12840;SDS011;6487;48.626;12.486;2024-01-25T01:54:00;10.97;;;2.73;;
12840;SDS011;6487;48.626;12.486;2024-01-25T01:56:30;19.90;;;3.27;;
12840;SDS011;6487;48.626;12.486;2024-01-25T01:59:01;14.00;;;3.47;;
12840;SDS011;6487;48.626;12.486;2024-01-25T02:01:32;10.60;;;2.73;;
12840;SDS011;6487;48.626;12.486;2024-01-25T02:04:00;15.97;;;3.77;;
12840;SDS011;6487;48.626;12.486;2024-01-25T02:06:29;15.83;;;4.63;;
12840;SDS011;6487;48.626;12.486;2024-01-25T02:08:57;12.83;;;3.13;;
12840;SDS011;6487;48.626;12.486;2024-01-25T02:11:26;12.37;;;3.00;;
12840;SDS011;6487;48.626;12.486;2024-01-25T02:13:55;12.90;;;3.60;;
12840;SDS011;6487;48.626;12.486;2024-01-25T02:16:25;12.50;;;3.17;;
12840;SDS011;6487;48.626;12.486;2024-01-25T02:18:54;14.50;;;3.40;;
12840;SDS011;6487;48.626;12.486;2024-01-25T02:21:24;14.30;;;3.27;;
12840;SDS011;6487;48.626;12.486;2024-01-25T02:23:54;15.77;;;3.70;;
12840;SDS011;6487;48.626;12.486;2024-01-25T02:26:22;10.60;;;2.83;;
12840;SDS011;6487;48.626;12.486;2024-01-25T02:28:51;12.27;;;3.47;;
12840;SDS011;6487;48.626;12.486;2024-01-25T02:31:23;16.90;;;3.17;;
12840;SDS011;6487;48.626;12.486;2024-01-25T02:33:52;14.83;;;3.30;;
12840;SDS011;6487;48.626;12.486;2024-01-25T02:36:21;11.33;;;3.30;;
12840;SDS011;6487;48.626;12.486;2024-01-25T02:38:50;16.57;;;3.80;;
12840;SDS011;6487;48.626;12.486;2024-01-25T02:41:20;17.27;;;3.47;;
12840;SDS011;6487;48.626;12.486;2024-01-25T02:43:48;14.60;;;3.00;;
12840;SDS011;6487;48.626;12.486;2024-01-25T02:46:16;12.27;;;2.93;;
12840;SDS011;6487;48.626;12.486;2024-01-25T02:48:45;12.23;;;3.20;;
12840;SDS011;6487;48.626;12.486;2024-01-25T02:51:14;15.17;;;3.50;;
12840;SDS011;6487;48.626;12.486;2024-01-25T02:53:42;9.50;;;2.80;;
12840;SDS011;6487;48.626;12.486;2024-01-25T02:56:16;15.33;;;3.43;;
12840;SDS011;6487;48.626;12.486;2024-01-25T02:58:46;14.13;;;3.43;;
12840;SDS011;6487;48.626;12.486;2024-01-25T03:01:14;11.43;;;3.37;;
12840;SDS011;6487;48.626;12.486;2024-01-25T03:03:43;10.87;;;3.20;;
12840;SDS011;6487;48.626;12.486;2024-01-25T03:06:11;14.67;;;3.43;;
12840;SDS011;6487;48.626;12.486;2024-01-25T03:08:40;13.87;;;3.47;;
12840;SDS011;6487;48.626;12.486;2024-01-25T03:11:08;15.90;;;3.00;;
12840;SDS011;6487;48.626;12.486;2024-01-25T03:13:40;14.00;;;3.30;;
12840;SDS011;6487;48.626;12.486;2024-01-25T03:16:12;14.33;;;2.90;;
12840;SDS011;6487;48.626;12.486;2024-01-25T03:18:40;9.20;;;2.90;;
12840;SDS011;6487;48.626;12.486;2024-01-25T03:21:09;14.97;;;3.33;;
12840;SDS011;6487;48.626;12.486;2024-01-25T03:23:37;8.97;;;2.70;;
12840;SDS011;6487;48.626;12.486;2024-01-25T03:26:06;12.70;;;2.53;;
12840;SDS011;6487;48.626;12.486;2024-01-25T03:28:34;10.67;;;3.07;;
12840;SDS011;6487;48.626;12.486;2024-01-25T03:31:04;10.03;;;3.10;;
12840;SDS011;6487;48.626;12.486;2024-01-25T03:33:34;15.03;;;3.37;;
12840;SDS011;6487;48.626;12.486;2024-01-25T03:36:03;14.03;;;3.30;;
12840;SDS011;6487;48.626;12.486;2024-01-25T03:38:33;11.27;;;2.70;;
12840;SDS011;6487;48.626;12.486;2024-01-25T03:41:01;11.60;;;3.57;;
12840;SDS011;6487;48.626;12.486;2024-01-25T03:43:30;17.57;;;3.33;;
12840;SDS011;6487;48.626;12.486;2024-01-25T03:46:09;13.20;;;2.97;;
12840;SDS011;6487;48.626;12.486;2024-01-25T03:48:39;9.27;;;2.80;;
12840;SDS011;6487;48.626;12.486;2024-01-25T03:51:07;8.47;;;2.80;;
12840;SDS011;6487;48.626;12.486;2024-01-25T03:53:36;13.03;;;3.30;;
12840;SDS011;6487;48.626;12.486;2024-01-25T03:56:09;10.47;;;3.03;;
12840;SDS011;6487;48.626;12.486;2024-01-25T03:58:39;12.03;;;3.27;;
12840;SDS011;6487;48.626;12.486;2024-01-25T04:01:07;16.00;;;3.00;;
12840;SDS011;6487;48.626;12.486;2024-01-25T04:03:36;9.57;;;3.37;;
12840;SDS011;6487;48.626;12.486;2024-01-25T04:06:08;9.00;;;2.93;;
12840;SDS011;6487;48.626;12.486;2024-01-25T04:08:39;7.17;;;2.53;;
12840;SDS011;6487;48.626;12.486;2024-01-25T04:11:08;14.50;;;3.13;;
12840;SDS011;6487;48.626;12.486;2024-01-25T04:13:36;16.53;;;2.97;;
12840;SDS011;6487;48.626;12.486;2024-01-25T04:16:05;11.90;;;2.60;;
12840;SDS011;6487;48.626;12.486;2024-01-25T04:18:34;11.57;;;2.50;;
12840;SDS011;6487;48.626;12.486;2024-01-25T04:21:04;13.80;;;2.83;;
12840;SDS011;6487;48.626;12.486;2024-01-25T04:23:33;15.13;;;3.43;;
12840;SDS011;6487;48.626;12.486;2024-01-25T04:26:02;9.87;;;2.67;;
12840;SDS011;6487;48.626;12.486;2024-01-25T04:28:30;14.33;;;3.37;;
12840;SDS011;6487;48.626;12.486;2024-01-25T04:30:59;9.80;;;2.30;;
12840;SDS011;6487;48.626;12.486;2024-01-25T04:33:29;14.07;;;3.63;;
12840;SDS011;6487;48.626;12.486;2024-01-25T04:35:58;12.20;;;3.57;;
12840;SDS011;6487;48.626;12.486;2024-01-25T04:38:28;12.67;;;3.00;;
12840;SDS011;6487;48.626;12.486;2024-01-25T04:40:56;11.73;;;3.23;;
12840;SDS011;6487;48.626;12.486;2024-01-25T04:43:25;9.33;;;2.30;;
12840;SDS011;6487;48.626;12.486;2024-01-25T04:45:53;13.10;;;2.90;;
12840;SDS011;6487;48.626;12.486;2024-01-25T04:48:22;17.13;;;4.23;;
12840;SDS011;6487;48.626;12.486;2024-01-25T04:50:50;14.17;;;3.30;;
12840;SDS011;6487;48.626;12.486;2024-01-25T04:53:18;16.07;;;2.50;;
12840;SDS011;6487;48.626;12.486;2024-01-25T04:55:48;9.67;;;2.57;;
12840;SDS011;6487;48.626;12.486;2024-01-25T04:58:16;17.00;;;3.60;;
12840;SDS011;6487;48.626;12.486;2024-01-25T05:00:45;16.53;;;2.50;;
12840;SDS011;6487;48.626;12.486;2024-01-25T05:03:13;11.90;;;2.80;;
12840;SDS011;6487;48.626;12.486;2024-01-25T05:05:44;13.40;;;2.70;;
12840;SDS011;6487;48.626;12.486;2024-01-25T05:08:13;16.13;;;3.03;;
12840;SDS011;6487;48.626;12.486;2024-01-25T05:10:41;9.03;;;3.50;;
12840;SDS011;6487;48.626;12.486;2024-01-25T05:15:41;11.90;;;3.23;;
12840;SDS011;6487;48.626;12.486;2024-01-25T05:18:10;15.73;;;3.70;;
12840;SDS011;6487;48.626;12.486;2024-01-25T05:20:38;10.33;;;2.80;;
12840;SDS011;6487;48.626;12.486;2024-01-25T05:23:07;12.23;;;3.13;;
12840;SDS011;6487;48.626;12.486;2024-01-25T05:25:35;16.30;;;3.10;;
12840;SDS011;6487;48.626;12.486;2024-01-25T05:28:04;13.53;;;3.97;;
12840;SDS011;6487;48.626;12.486;2024-01-25T05:30:33;12.00;;;3.30;;
12840;SDS011;6487;48.626;12.486;2024-01-25T05:33:04;13.07;;;3.13;;
12840;SDS011;6487;48.626;12.486;2024-01-25T05:35:32;11.67;;;3.03;;
12840;SDS011;6487;48.626;12.486;2024-01-25T05:38:07;15.23;;;3.77;;
12840;SDS011;6487;48.626;12.486;2024-01-25T05:40:37;14.13;;;3.00;;
12840;SDS011;6487;48.626;12.486;2024-01-25T05:43:05;12.30;;;2.90;;
12840;SDS011;6487;48.626;12.486;2024-01-25T05:45:34;11.30;;;2.70;;
12840;SDS011;6487;48.626;12.486;2024-01-25T05:48:05;17.83;;;3.47;;
12840;SDS011;6487;48.626;12.486;2024-01-25T05:50:35;11.63;;;3.53;;
12840;SDS011;6487;48.626;12.486;2024-01-25T05:53:03;8.87;;;3.37;;
12840;SDS011;6487;48.626;12.486;2024-01-25T05:55:31;17.33;;;2.87;;
12840;SDS011;6487;48.626;12.486;2024-01-25T05:58:00;9.93;;;2.97;;
12840;SDS011;6487;48.626;12.486;2024-01-25T06:00:29;11.53;;;2.50;;
12840;SDS011;6487;48.626;12.486;2024-01-25T06:02:58;11.03;;;3.47;;
12840;SDS011;6487;48.626;12.486;2024-01-25T06:05:27;12.80;;;3.07;;
12840;SDS011;6487;48.626;12.486;2024-01-25T06:07:56;12.37;;;3.37;;
12840;SDS011;6487;48.626;12.486;2024-01-25T06:10:25;11.53;;;3.37;;
12840;SDS011;6487;48.626;12.486;2024-01-25T06:12:54;14.40;;;3.77;;
12840;SDS011;6487;48.626;12.486;2024-01-25T06:15:23;17.50;;;4.73;;
12840;SDS011;6487;48.626;12.486;2024-01-25T06:17:52;13.80;;;3.37;;
12840;SDS011;6487;48.626;12.486;2024-01-25T06:20:20;15.47;;;3.27;;
12840;SDS011;6487;48.626;12.486;2024-01-25T06:22:53;16.53;;;3.60;;
12840;SDS011;6487;48.626;12.486;2024-01-25T06:25:22;12.97;;;3.60;;
12840;SDS011;6487;48.626;12.486;2024-01-25T06:27:50;13.67;;;3.90;;
12840;SDS011;6487;48.626;12.486;2024-01-25T06:30:19;17.10;;;3.13;;
12840;SDS011;6487;48.626;12.486;2024-01-25T06:32:49;9.60;;;3.00;;
12840;SDS011;6487;48.626;12.486;2024-01-25T06:35:29;16.80;;;3.70;;
12840;SDS011;6487;48.626;12.486;2024-01-25T06:38:00;19.23;;;4.00;;
12840;SDS011;6487;48.626;12.486;2024-01-25T06:40:28;12.10;;;3.80;;
12840;SDS011;6487;48.626;12.486;2024-01-25T06:42:56;16.37;;;4.50;;
12840;SDS011;6487;48.626;12.486;2024-01-25T06:45:25;21.13;;;5.43;;
12840;SDS011;6487;48.626;12.486;2024-01-25T06:47:53;17.97;;;4.27;;
12840;SDS011;6487;48.626;12.486;2024-01-25T06:50:22;16.77;;;3.87;;
12840;SDS011;6487;48.626;12.486;2024-01-25T06:52:51;13.57;;;3.73;;
12840;SDS011;6487;48.626;12.486;2024-01-25T06:55:23;14.63;;;3.97;;
12840;SDS011;6487;48.626;12.486;2024-01-25T06:57:51;10.47;;;3.60;;
12840;SDS011;6487;48.626;12.486;2024-01-25T07:00:20;8.93;;;3.47;;
12840;SDS011;6487;48.626;12.486;2024-01-25T07:02:49;11.60;;;3.40;;
12840;SDS011;6487;48.626;12.486;2024-01-25T07:05:18;15.80;;;4.40;;
12840;SDS011;6487;48.626;12.486;2024-01-25T07:07:47;17.77;;;4.17;;
12840;SDS011;6487;48.626;12.486;2024-01-25T07:10:15;15.47;;;3.37;;
12840;SDS011;6487;48.626;12.486;2024-01-25T07:12:46;11.70;;;3.03;;
12840;SDS011;6487;48.626;12.486;2024-01-25T07:15:14;11.20;;;2.63;;
12840;SDS011;6487;48.626;12.486;2024-01-25T07:17:44;13.03;;;3.53;;
12840;SDS011;6487;48.626;12.486;2024-01-25T07:20:12;12.17;;;3.40;;
12840;SDS011;6487;48.626;12.486;2024-01-25T07:22:41;15.77;;;3.70;;
12840;SDS011;6487;48.626;12.486;2024-01-25T07:25:10;14.20;;;4.07;;
12840;SDS011;6487;48.626;12.486;2024-01-25T07:27:39;14.37;;;3.47;;
12840;SDS011;6487;48.626;12.486;2024-01-25T07:30:10;15.90;;;3.37;;
12840;SDS011;6487;48.626;12.486;2024-01-25T07:32:40;14.40;;;3.70;;
12840;SDS011;6487;48.626;12.486;2024-01-25T07:35:12;19.30;;;3.50;;
12840;SDS011;6487;48.626;12.486;2024-01-25T07:37:41;17.00;;;5.83;;
12840;SDS011;6487;48.626;12.486;2024-01-25T07:40:10;11.97;;;4.40;;
12840;SDS011;6487;48.626;12.486;2024-01-25T07:42:40;9.17;;;3.27;;
12840;SDS011;6487;48.626;12.486;2024-01-25T07:45:10;14.60;;;3.90;;
12840;SDS011;6487;48.626;12.486;2024-01-25T07:47:40;13.00;;;3.60;;
12840;SDS011;6487;48.626;12.486;2024-01-25T07:50:09;12.30;;;3.60;;
12840;SDS011;6487;48.626;12.486;2024-01-25T07:52:38;17.20;;;3.70;;
12840;SDS011;6487;48.626;12.486;2024-01-25T08:15:40;6.20;;;2.57;;
12840;SDS011;6487;48.626;12.486;2024-01-25T08:18:09;18.97;;;5.67;;
12840;SDS011;6487;48.626;12.486;2024-01-25T08:20:45;14.93;;;4.03;;
12840;SDS011;6487;48.626;12.486;2024-01-25T08:23:15;16.67;;;4.50;;
12840;SDS011;6487;48.626;12.486;2024-01-25T08:25:45;15.60;;;4.43;;
12840;SDS011;6487;48.626;12.486;2024-01-25T08:28:13;11.23;;;3.57;;
12840;SDS011;6487;48.626;12.486;2024-01-25T08:30:43;18.67;;;5.37;;
12840;SDS011;6487;48.626;12.486;2024-01-25T08:33:15;20.40;;;5.57;;
12840;SDS011;6487;48.626;12.486;2024-01-25T08:35:44;14.33;;;5.07;;
12840;SDS011;6487;48.626;12.486;2024-01-25T08:38:12;21.23;;;7.17;;
12840;SDS011;6487;48.626;12.486;2024-01-25T08:40:41;21.87;;;8.30;;
12840;SDS011;6487;48.626;12.486;2024-01-25T08:43:10;19.40;;;5.60;;
12840;SDS011;6487;48.626;12.486;2024-01-25T08:45:39;19.83;;;5.37;;
12840;SDS011;6487;48.626;12.486;2024-01-25T08:48:09;14.20;;;5.13;;
12840;SDS011;6487;48.626;12.486;2024-01-25T08:50:39;15.50;;;5.43;;
12840;SDS011;6487;48.626;12.486;2024-01-25T08:53:09;15.23;;;5.00;;
12840;SDS011;6487;48.626;12.486;2024-01-25T08:55:37;16.50;;;4.17;;
12840;SDS011;6487;48.626;12.486;2024-01-25T08:58:07;13.43;;;3.97;;
12840;SDS011;6487;48.626;12.486;2024-01-25T09:00:36;16.73;;;4.30;;
12840;SDS011;6487;48.626;12.486;2024-01-25T09:03:04;14.17;;;4.63;;
12840;SDS011;6487;48.626;12.486;2024-01-25T09:05:34;14.43;;;3.97;;
12840;SDS011;6487;48.626;12.486;2024-01-25T09:08:07;14.43;;;4.93;;
12840;SDS011;6487;48.626;12.486;2024-01-25T09:10:36;16.30;;;4.40;;
12840;SDS011;6487;48.626;12.486;2024-01-25T09:13:05;16.07;;;5.00;;
12840;SDS011;6487;48.626;12.486;2024-01-25T09:15:34;18.57;;;5.03;;
12840;SDS011;6487;48.626;12.486;2024-01-25T09:18:02;18.73;;;4.17;;
12840;SDS011;6487;48.626;12.486;2024-01-25T09:20:31;12.17;;;4.57;;
12840;SDS011;6487;48.626;12.486;2024-01-25T09:23:02;15.17;;;4.23;;
12840;SDS011;6487;48.626;12.486;2024-01-25T09:25:31;12.73;;;4.23;;
12840;SDS011;6487;48.626;12.486;2024-01-25T09:28:00;11.73;;;4.20;;
12840;SDS011;6487;48.626;12.486;2024-01-25T09:30:30;10.70;;;3.37;;
12840;SDS011;6487;48.626;12.486;2024-01-25T09:32:59;15.27;;;4.03;;
12840;SDS011;6487;48.626;12.486;2024-01-25T09:35:27;16.27;;;4.80;;
12840;SDS011;6487;48.626;12.486;2024-01-25T09:37:58;13.90;;;4.23;;
12840;SDS011;6487;48.626;12.486;2024-01-25T09:40:26;16.07;;;4.00;;
12840;SDS011;6487;48.626;12.486;2024-01-25T09:42:56;17.27;;;4.23;;
12840;SDS011;6487;48.626;12.486;2024-01-25T09:45:25;18.57;;;4.30;;
12840;SDS011;6487;48.626;12.486;2024-01-25T09:47:59;12.87;;;4.00;;
12840;SDS011;6487;48.626;12.486;2024-01-25T09:50:31;13.53;;;4.23;;
12840;SDS011;6487;48.626;12.486;2024-01-25T09:53:02;15.33;;;4.40;;
12840;SDS011;6487;48.626;12.486;2024-01-25T09:55:33;15.40;;;4.57;;
12840;SDS011;6487;48.626;12.486;2024-01-25T09:58:05;16.40;;;4.97;;
12840;SDS011;6487;48.626;12.486;2024-01-25T10:00:35;15.70;;;4.03;;
12840;SDS011;6487;48.626;12.486;2024-01-25T10:03:04;13.33;;;3.90;;
12840;SDS011;6487;48.626;12.486;2024-01-25T10:05:33;15.73;;;4.30;;
12840;SDS011;6487;48.626;12.486;2024-01-25T10:08:03;14.27;;;4.03;;
12840;SDS011;6487;48.626;12.486;2024-01-25T10:10:41;17.67;;;4.90;;
12840;SDS011;6487;48.626;12.486;2024-01-25T10:13:11;14.43;;;4.57;;
12840;SDS011;6487;48.626;12.486;2024-01-25T10:15:41;15.57;;;5.47;;
12840;SDS011;6487;48.626;12.486;2024-01-25T10:18:14;20.40;;;7.17;;
12840;SDS011;6487;48.626;12.486;2024-01-25T10:20:55;18.77;;;6.60;;
12840;SDS011;6487;48.626;12.486;2024-01-25T10:23:25;20.40;;;6.83;;
12840;SDS011;6487;48.626;12.486;2024-01-25T10:25:57;12.90;;;5.13;;
12840;SDS011;6487;48.626;12.486;2024-01-25T10:28:26;21.70;;;7.53;;
12840;SDS011;6487;48.626;12.486;2024-01-25T10:30:59;14.23;;;5.57;;
12840;SDS011;6487;48.626;12.486;2024-01-25T10:33:30;13.17;;;4.37;;
12840;SDS011;6487;48.626;12.486;2024-01-25T10:36:02;11.17;;;4.40;;
12840;SDS011;6487;48.626;12.486;2024-01-25T10:38:33;17.47;;;5.73;;
12840;SDS011;6487;48.626;12.486;2024-01-25T10:41:05;13.30;;;4.33;;
12840;SDS011;6487;48.626;12.486;2024-01-25T10:43:33;13.73;;;4.17;;
12840;SDS011;6487;48.626;12.486;2024-01-25T10:46:03;16.30;;;4.50;;
12840;SDS011;6487;48.626;12.486;2024-01-25T10:48:33;15.73;;;4.37;;
12840;SDS011;6487;48.626;12.486;2024-01-25T10:51:02;19.10;;;4.97;;
12840;SDS011;6487;48.626;12.486;2024-01-25T10:53:34;14.53;;;4.33;;
12840;SDS011;6487;48.626;12.486;2024-01-25T10:56:03;12.43;;;4.30;;
12840;SDS011;6487;48.626;12.486;2024-01-25T10:58:33;11.53;;;4.23;;
12840;SDS011;6487;48.626;12.486;2024-01-25T11:01:07;16.10;;;4.23;;
12840;SDS011;6487;48.626;12.486;2024-01-25T11:03:42;14.23;;;4.03;;
12840;SDS011;6487;48.626;12.486;2024-01-25T11:06:14;14.37;;;3.90;;
12840;SDS011;6487;48.626;12.486;2024-01-25T11:08:45;11.83;;;3.30;;
12840;SDS011;6487;48.626;12.486;2024-01-25T11:11:14;16.43;;;4.30;;
12840;SDS011;6487;48.626;12.486;2024-01-25T11:13:43;14.70;;;4.87;;
12840;SDS011;6487;48.626;12.486;2024-01-25T11:16:13;19.40;;;4.20;;
12840;SDS011;6487;48.626;12.486;2024-01-25T11:18:49;14.90;;;3.80;;
12840;SDS011;6487;48.626;12.486;2024-01-25T11:21:25;13.97;;;4.13;;
12840;SDS011;6487;48.626;12.486;2024-01-25T11:24:02;10.37;;;3.97;;
12840;SDS011;6487;48.626;12.486;2024-01-25T11:26:32;18.37;;;4.67;;
12840;SDS011;6487;48.626;12.486;2024-01-25T11:29:01;11.20;;;3.80;;
12840;SDS011;6487;48.626;12.486;2024-01-25T11:31:29;11.37;;;3.50;;
12840;SDS011;6487;48.626;12.486;2024-01-25T11:33:58;16.60;;;4.30;;
12840;SDS011;6487;48.626;12.486;2024-01-25T11:36:28;14.53;;;3.93;;
12840;SDS011;6487;48.626;12.486;2024-01-25T11:38:57;12.57;;;4.07;;
12840;SDS011;6487;48.626;12.486;2024-01-25T11:41:27;11.47;;;3.57;;
12840;SDS011;6487;48.626;12.486;2024-01-25T11:43:55;14.53;;;4.50;;
12840;SDS011;6487;48.626;12.486;2024-01-25T11:46:24;10.97;;;3.30;;
12840;SDS011;6487;48.626;12.486;2024-01-25T11:48:53;15.80;;;4.60;;
12840;SDS011;6487;48.626;12.486;2024-01-25T11:51:21;13.43;;;4.07;;
12840;SDS011;6487;48.626;12.486;2024-01-25T11:53:50;12.07;;;3.83;;
12840;SDS011;6487;48.626;12.486;2024-01-25T11:56:19;9.53;;;3.40;;
12840;SDS011;6487;48.626;12.486;2024-01-25T11:58:53;12.67;;;3.37;;
12840;SDS011;6487;48.626;12.486;2024-01-25T12:01:23;13.63;;;3.80;;
12840;SDS011;6487;48.626;12.486;2024-01-25T12:03:53;11.93;;;3.73;;
12840;SDS011;6487;48.626;12.486;2024-01-25T12:06:22;13.00;;;3.83;;
12840;SDS011;6487;48.626;12.486;2024-01-25T12:08:52;14.17;;;3.63;;
12840;SDS011;6487;48.626;12.486;2024-01-25T12:11:20;17.60;;;4.37;;
12840;SDS011;6487;48.626;12.486;2024-01-25T12:13:49;12.43;;;3.90;;
12840;SDS011;6487;48.626;12.486;2024-01-25T12:16:19;11.83;;;3.47;;
12840;SDS011;6487;48.626;12.486;2024-01-25T12:18:47;13.90;;;3.87;;
12840;SDS011;6487;48.626;12.486;2024-01-25T12:21:17;16.87;;;4.33;;
12840;SDS011;6487;48.626;12.486;2024-01-25T12:23:45;12.10;;;3.13;;
12840;SDS011;6487;48.626;12.486;2024-01-25T12:26:14;13.30;;;4.00;;
12840;SDS011;6487;48.626;12.486;2024-01-25T12:28:43;11.87;;;3.63;;
12840;SDS011;6487;48.626;12.486;2024-01-25T12:31:12;15.60;;;4.03;;
12840;SDS011;6487;48.626;12.486;2024-01-25T12:33:42;13.43;;;3.60;;
12840;SDS011;6487;48.626;12.486;2024-01-25T12:36:11;13.87;;;3.57;;
12840;SDS011;6487;48.626;12.486;2024-01-25T12:38:40;11.67;;;3.70;;
12840;SDS011;6487;48.626;12.486;2024-01-25T12:41:08;13.73;;;3.87;;
12840;SDS011;6487;48.626;12.486;2024-01-25T12:43:37;12.20;;;3.77;;
12840;SDS011;6487;48.626;12.486;2024-01-25T12:46:05;13.07;;;3.13;;
12840;SDS011;6487;48.626;12.486;2024-01-25T12:48:52;17.50;;;5.23;;
12840;SDS011;6487;48.626;12.486;2024-01-25T12:51:24;12.60;;;4.20;;
12840;SDS011;6487;48.626;12.486;2024-01-25T12:53:54;11.47;;;3.70;;
12840;SDS011;6487;48.626;12.486;2024-01-25T12:56:23;13.23;;;3.37;;
12840;SDS011;6487;48.626;12.486;2024-01-25T12:58:51;13.83;;;3.93;;
12840;SDS011;6487;48.626;12.486;2024-01-25T13:01:21;11.03;;;3.93;;
12840;SDS011;6487;48.626;12.486;2024-01-25T13:03:52;13.33;;;3.63;;
12840;SDS011;6487;48.626;12.486;2024-01-25T13:06:21;12.27;;;3.63;;
12840;SDS011;6487;48.626;12.486;2024-01-25T13:08:50;14.23;;;3.80;;
12840;SDS011;6487;48.626;12.486;2024-01-25T13:11:18;13.50;;;3.70;;
12840;SDS011;6487;48.626;12.486;2024-01-25T13:13:47;12.30;;;3.53;;
12840;SDS011;6487;48.626;12.486;2024-01-25T13:16:17;14.23;;;3.47;;
12840;SDS011;6487;48.626;12.486;2024-01-25T13:18:46;12.53;;;3.97;;
12840;SDS011;6487;48.626;12.486;2024-01-25T13:21:16;11.30;;;3.43;;
12840;SDS011;6487;48.626;12.486;2024-01-25T13:23:44;16.10;;;3.67;;
12840;SDS011;6487;48.626;12.486;2024-01-25T13:26:13;13.17;;;4.00;;
12840;SDS011;6487;48.626;12.486;2024-01-25T13:28:42;14.30;;;3.77;;
12840;SDS011;6487;48.626;12.486;2024-01-25T13:31:10;12.77;;;3.53;;
12840;SDS011;6487;48.626;12.486;2024-01-25T13:33:39;16.23;;;4.40;;
12840;SDS011;6487;48.626;12.486;2024-01-25T13:36:10;12.27;;;4.03;;
12840;SDS011;6487;48.626;12.486;2024-01-25T13:38:42;12.37;;;3.60;;
12840;SDS011;6487;48.626;12.486;2024-01-25T13:41:10;13.43;;;3.57;;
12840;SDS011;6487;48.626;12.486;2024-01-25T13:43:39;13.20;;;3.77;;
12840;SDS011;6487;48.626;12.486;2024-01-25T13:46:07;11.43;;;3.27;;
12840;SDS011;6487;48.626;12.486;2024-01-25T13:48:36;13.27;;;3.87;;
12840;SDS011;6487;48.626;12.486;2024-01-25T13:51:05;18.93;;;4.07;;
12840;SDS011;6487;48.626;12.486;2024-01-25T13:53:34;11.10;;;3.63;;
12840;SDS011;6487;48.626;12.486;2024-01-25T13:56:05;14.10;;;3.90;;
12840;SDS011;6487;48.626;12.486;2024-01-25T13:58:37;12.03;;;4.30;;
12840;SDS011;6487;48.626;12.486;2024-01-25T14:01:05;16.00;;;3.50;;
12840;SDS011;6487;48.626;12.486;2024-01-25T14:03:34;17.47;;;4.10;;
12840;SDS011;6487;48.626;12.486;2024-01-25T14:06:03;10.90;;;3.43;;
12840;SDS011;6487;48.626;12.486;2024-01-25T14:08:34;13.20;;;3.47;;
12840;SDS011;6487;48.626;12.486;2024-01-25T14:11:05;9.33;;;3.03;;
12840;SDS011;6487;48.626;12.486;2024-01-25T14:13:34;12.73;;;3.93;;
12840;SDS011;6487;48.626;12.486;2024-01-25T14:16:03;15.00;;;3.83;;
12840;SDS011;6487;48.626;12.486;2024-01-25T14:18:35;18.30;;;3.97;;
12840;SDS011;6487;48.626;12.486;2024-01-25T14:21:05;16.20;;;4.13;;
12840;SDS011;6487;48.626;12.486;2024-01-25T14:23:34;11.93;;;3.83;;
12840;SDS011;6487;48.626;12.486;2024-01-25T14:26:03;9.77;;;3.27;;
12840;SDS011;6487;48.626;12.486;2024-01-25T14:28:33;9.70;;;3.50;;
12840;SDS011;6487;48.626;12.486;2024-01-25T14:31:01;12.17;;;3.30;;
12840;SDS011;6487;48.626;12.486;2024-01-25T14:33:30;15.40;;;3.83;;
12840;SDS011;6487;48.626;12.486;2024-01-25T14:35:59;15.33;;;4.13;;
12840;SDS011;6487;48.626;12.486;2024-01-25T14:38:30;12.70;;;3.97;;
12840;SDS011;6487;48.626;12.486;2024-01-25T14:41:00;10.70;;;3.80;;
12840;SDS011;6487;48.626;12.486;2024-01-25T14:43:30;13.87;;;4.00;;
12840;SDS011;6487;48.626;12.486;2024-01-25T14:46:02;10.83;;;4.20;;
12840;SDS011;6487;48.626;12.486;2024-01-25T14:48:31;13.60;;;5.93;;
12840;SDS011;6487;48.626;12.486;2024-01-25T14:51:00;14.00;;;4.50;;
12840;SDS011;6487;48.626;12.486;2024-01-25T14:53:28;16.17;;;4.83;;
12840;SDS011;6487;48.626;12.486;2024-01-25T14:55:57;11.23;;;4.63;;
12840;SDS011;6487;48.626;12.486;2024-01-25T14:58:25;16.07;;;4.23;;
12840;SDS011;6487;48.626;12.486;2024-01-25T15:00:59;10.47;;;3.53;;
12840;SDS011;6487;48.626;12.486;2024-01-25T15:03:28;11.93;;;3.93;;
12840;SDS011;6487;48.626;12.486;2024-01-25T15:05:57;10.77;;;3.40;;
12840;SDS011;6487;48.626;12.486;2024-01-25T15:08:26;13.37;;;3.43;;
12840;SDS011;6487;48.626;12.486;2024-01-25T15:10:55;18.97;;;7.90;;
12840;SDS011;6487;48.626;12.486;2024-01-25T15:13:23;13.80;;;4.60;;